sensor_id;sensor_type;location;lat;lon;timestamp;P1;durP1;ratioP1;P2;durP2;ratioP2
56999;SDS011;42891;50.006;21.964;2023-06-22T00:01:21;20.30;;;14.23;;
56999;SDS011;42891;50.006;21.964;2023-06-22T00:05:22;16.15;;;13.02;;
56999;SDS011;42891;50.006;21.964;2023-06-22T00:09:22;13.85;;;11.40;;
56999;SDS011;42891;50.006;21.964;2023-06-22T00:13:23;16.83;;;12.68;;
56999;SDS011;42891;50.006;21.964;2023-06-22T00:17:23;15.77;;;12.23;;
56999;SDS011;42891;50.006;21.964;2023-06-22T00:21:23;13.82;;;11.45;;
56999;SDS011;42891;50.006;21.964;2023-06-22T00:25:24;13.77;;;11.07;;
56999;SDS011;42891;50.006;21.964;2023-06-22T00:29:25;14.93;;;11.52;;
56999;SDS011;42891;50.006;21.964;2023-06-22T00:33:26;15.20;;;11.60;;
56999;SDS011;42891;50.006;21.964;2023-06-22T00:37:26;13.30;;;11.93;;
56999;SDS011;42891;50.006;21.964;2023-06-22T00:41:29;17.52;;;11.65;;
56999;SDS011;42891;50.006;21.964;2023-06-22T00:45:29;18.25;;;12.63;;
56999;SDS011;42891;50.006;21.964;2023-06-22T00:49:30;16.50;;;12.40;;
56999;SDS011;42891;50.006;21.964;2023-06-22T00:53:30;14.55;;;12.20;;
56999;SDS011;42891;50.006;21.964;2023-06-22T00:57:35;14.90;;;12.13;;
56999;SDS011;42891;50.006;21.964;2023-06-22T01:01:37;17.48;;;13.73;;
56999;SDS011;42891;50.006;21.964;2023-06-22T01:05:39;15.98;;;12.52;;
56999;SDS011;42891;50.006;21.964;2023-06-22T01:09:51;17.00;;;12.77;;
56999;SDS011;42891;50.006;21.964;2023-06-22T01:14:06;13.65;;;11.30;;
56999;SDS011;42891;50.006;21.964;2023-06-22T01:18:12;13.43;;;11.52;;
56999;SDS011;42891;50.006;21.964;2023-06-22T01:22:17;15.57;;;12.05;;
56999;SDS011;42891;50.006;21.964;2023-06-22T01:30:43;15.48;;;12.40;;
56999;SDS011;42891;50.006;21.964;2023-06-22T01:34:46;13.57;;;10.65;;
56999;SDS011;42891;50.006;21.964;2023-06-22T01:38:48;15.20;;;12.25;;
56999;SDS011;42891;50.006;21.964;2023-06-22T01:42:49;13.70;;;11.45;;
56999;SDS011;42891;50.006;21.964;2023-06-22T01:46:50;15.98;;;12.50;;
56999;SDS011;42891;50.006;21.964;2023-06-22T01:50:52;15.30;;;11.98;;
56999;SDS011;42891;50.006;21.964;2023-06-22T01:54:53;15.52;;;12.10;;
56999;SDS011;42891;50.006;21.964;2023-06-22T02:03:23;15.07;;;11.60;;
56999;SDS011;42891;50.006;21.964;2023-06-22T02:07:31;14.63;;;12.82;;
56999;SDS011;42891;50.006;21.964;2023-06-22T02:11:34;15.60;;;11.73;;
56999;SDS011;42891;50.006;21.964;2023-06-22T02:15:36;13.88;;;11.68;;
56999;SDS011;42891;50.006;21.964;2023-06-22T02:19:37;19.30;;;12.95;;
56999;SDS011;42891;50.006;21.964;2023-06-22T02:23:37;14.90;;;12.57;;
56999;SDS011;42891;50.006;21.964;2023-06-22T02:27:38;15.65;;;12.88;;
56999;SDS011;42891;50.006;21.964;2023-06-22T02:31:41;15.35;;;12.32;;
56999;SDS011;42891;50.006;21.964;2023-06-22T02:35:41;17.93;;;13.80;;
56999;SDS011;42891;50.006;21.964;2023-06-22T02:39:45;16.65;;;11.85;;
56999;SDS011;42891;50.006;21.964;2023-06-22T02:43:45;13.13;;;11.73;;
56999;SDS011;42891;50.006;21.964;2023-06-22T02:47:46;16.10;;;12.00;;
56999;SDS011;42891;50.006;21.964;2023-06-22T02:51:48;15.65;;;11.80;;
56999;SDS011;42891;50.006;21.964;2023-06-22T02:55:48;20.02;;;12.70;;
56999;SDS011;42891;50.006;21.964;2023-06-22T02:59:48;16.90;;;12.98;;
56999;SDS011;42891;50.006;21.964;2023-06-22T03:03:49;16.17;;;12.67;;
56999;SDS011;42891;50.006;21.964;2023-06-22T03:07:49;17.10;;;13.15;;
56999;SDS011;42891;50.006;21.964;2023-06-22T03:11:51;18.90;;;12.70;;
56999;SDS011;42891;50.006;21.964;2023-06-22T03:15:51;18.90;;;13.02;;
56999;SDS011;42891;50.006;21.964;2023-06-22T03:19:52;21.65;;;13.55;;
56999;SDS011;42891;50.006;21.964;2023-06-22T03:23:52;17.97;;;14.30;;
56999;SDS011;42891;50.006;21.964;2023-06-22T03:27:53;17.70;;;13.15;;
56999;SDS011;42891;50.006;21.964;2023-06-22T03:31:53;21.30;;;14.32;;
56999;SDS011;42891;50.006;21.964;2023-06-22T03:35:53;16.00;;;13.90;;
56999;SDS011;42891;50.006;21.964;2023-06-22T03:39:54;15.67;;;13.33;;
56999;SDS011;42891;50.006;21.964;2023-06-22T03:43:54;14.90;;;11.43;;
56999;SDS011;42891;50.006;21.964;2023-06-22T03:47:55;14.90;;;11.48;;
56999;SDS011;42891;50.006;21.964;2023-06-22T03:51:55;14.68;;;11.88;;
56999;SDS011;42891;50.006;21.964;2023-06-22T03:55:55;15.80;;;11.95;;
56999;SDS011;42891;50.006;21.964;2023-06-22T03:59:56;12.88;;;11.25;;
56999;SDS011;42891;50.006;21.964;2023-06-22T04:03:57;14.18;;;12.65;;
56999;SDS011;42891;50.006;21.964;2023-06-22T04:07:58;14.50;;;11.88;;
56999;SDS011;42891;50.006;21.964;2023-06-22T04:11:58;16.48;;;13.75;;
56999;SDS011;42891;50.006;21.964;2023-06-22T04:15:58;16.83;;;13.30;;
56999;SDS011;42891;50.006;21.964;2023-06-22T04:20:01;17.10;;;13.82;;
56999;SDS011;42891;50.006;21.964;2023-06-22T04:24:01;18.40;;;13.25;;
56999;SDS011;42891;50.006;21.964;2023-06-22T04:28:02;15.90;;;12.98;;
56999;SDS011;42891;50.006;21.964;2023-06-22T04:32:03;19.05;;;13.05;;
56999;SDS011;42891;50.006;21.964;2023-06-22T04:36:05;16.65;;;12.68;;
56999;SDS011;42891;50.006;21.964;2023-06-22T04:40:05;14.63;;;11.70;;
56999;SDS011;42891;50.006;21.964;2023-06-22T04:44:07;19.80;;;12.23;;
56999;SDS011;42891;50.006;21.964;2023-06-22T04:48:10;15.75;;;11.38;;
56999;SDS011;42891;50.006;21.964;2023-06-22T04:52:15;17.92;;;11.95;;
56999;SDS011;42891;50.006;21.964;2023-06-22T04:56:17;14.00;;;11.95;;
56999;SDS011;42891;50.006;21.964;2023-06-22T05:00:18;15.23;;;12.65;;
56999;SDS011;42891;50.006;21.964;2023-06-22T05:04:19;15.40;;;11.40;;
56999;SDS011;42891;50.006;21.964;2023-06-22T05:08:20;15.32;;;11.52;;
56999;SDS011;42891;50.006;21.964;2023-06-22T05:12:20;18.30;;;12.70;;
56999;SDS011;42891;50.006;21.964;2023-06-22T05:16:22;25.27;;;12.25;;
56999;SDS011;42891;50.006;21.964;2023-06-22T05:20:25;18.98;;;12.40;;
56999;SDS011;42891;50.006;21.964;2023-06-22T05:24:26;17.63;;;13.02;;
56999;SDS011;42891;50.006;21.964;2023-06-22T05:28:26;17.13;;;13.25;;
56999;SDS011;42891;50.006;21.964;2023-06-22T05:32:26;18.43;;;12.73;;
56999;SDS011;42891;50.006;21.964;2023-06-22T05:36:27;20.13;;;12.90;;
56999;SDS011;42891;50.006;21.964;2023-06-22T05:40:27;20.00;;;12.98;;
56999;SDS011;42891;50.006;21.964;2023-06-22T05:44:27;22.00;;;12.80;;
56999;SDS011;42891;50.006;21.964;2023-06-22T05:48:28;18.80;;;13.10;;
56999;SDS011;42891;50.006;21.964;2023-06-22T05:52:28;15.93;;;13.77;;
56999;SDS011;42891;50.006;21.964;2023-06-22T05:56:28;20.13;;;13.83;;
56999;SDS011;42891;50.006;21.964;2023-06-22T06:00:29;17.83;;;14.27;;
56999;SDS011;42891;50.006;21.964;2023-06-22T06:04:29;19.85;;;15.43;;
56999;SDS011;42891;50.006;21.964;2023-06-22T06:08:30;20.42;;;14.88;;
56999;SDS011;42891;50.006;21.964;2023-06-22T06:12:30;18.27;;;14.43;;
56999;SDS011;42891;50.006;21.964;2023-06-22T06:16:30;20.10;;;14.63;;
56999;SDS011;42891;50.006;21.964;2023-06-22T06:20:32;21.00;;;15.75;;
56999;SDS011;42891;50.006;21.964;2023-06-22T06:24:32;18.48;;;15.23;;
56999;SDS011;42891;50.006;21.964;2023-06-22T06:28:33;18.83;;;15.20;;
56999;SDS011;42891;50.006;21.964;2023-06-22T06:32:33;18.88;;;14.07;;
56999;SDS011;42891;50.006;21.964;2023-06-22T06:36:34;22.55;;;15.50;;
56999;SDS011;42891;50.006;21.964;2023-06-22T06:40:34;22.20;;;16.58;;
56999;SDS011;42891;50.006;21.964;2023-06-22T06:44:34;18.85;;;16.10;;
56999;SDS011;42891;50.006;21.964;2023-06-22T06:48:37;21.48;;;15.15;;
56999;SDS011;42891;50.006;21.964;2023-06-22T06:52:38;21.92;;;16.00;;
56999;SDS011;42891;50.006;21.964;2023-06-22T06:56:38;18.23;;;15.52;;
56999;SDS011;42891;50.006;21.964;2023-06-22T07:00:39;20.70;;;14.53;;
56999;SDS011;42891;50.006;21.964;2023-06-22T07:04:39;14.73;;;13.13;;
56999;SDS011;42891;50.006;21.964;2023-06-22T07:08:40;19.80;;;14.65;;
56999;SDS011;42891;50.006;21.964;2023-06-22T07:12:40;16.60;;;12.80;;
56999;SDS011;42891;50.006;21.964;2023-06-22T07:16:41;15.00;;;12.35;;
56999;SDS011;42891;50.006;21.964;2023-06-22T07:20:41;14.07;;;12.00;;
56999;SDS011;42891;50.006;21.964;2023-06-22T07:24:41;15.90;;;11.77;;
56999;SDS011;42891;50.006;21.964;2023-06-22T07:28:42;14.50;;;11.82;;
56999;SDS011;42891;50.006;21.964;2023-06-22T07:32:42;14.90;;;10.02;;
56999;SDS011;42891;50.006;21.964;2023-06-22T07:36:43;12.37;;;9.50;;
56999;SDS011;42891;50.006;21.964;2023-06-22T07:40:45;9.32;;;6.93;;
56999;SDS011;42891;50.006;21.964;2023-06-22T07:44:45;9.43;;;7.90;;
56999;SDS011;42891;50.006;21.964;2023-06-22T07:48:45;8.00;;;7.20;;
56999;SDS011;42891;50.006;21.964;2023-06-22T07:52:46;9.20;;;7.50;;
56999;SDS011;42891;50.006;21.964;2023-06-22T07:56:47;9.38;;;7.82;;
56999;SDS011;42891;50.006;21.964;2023-06-22T08:00:48;12.15;;;8.10;;
56999;SDS011;42891;50.006;21.964;2023-06-22T08:04:49;10.57;;;8.15;;
56999;SDS011;42891;50.006;21.964;2023-06-22T08:08:49;10.70;;;7.90;;
56999;SDS011;42891;50.006;21.964;2023-06-22T08:12:52;10.60;;;8.70;;
56999;SDS011;42891;50.006;21.964;2023-06-22T08:16:53;11.23;;;8.80;;
56999;SDS011;42891;50.006;21.964;2023-06-22T08:20:53;10.40;;;9.30;;
56999;SDS011;42891;50.006;21.964;2023-06-22T08:24:53;12.97;;;9.20;;
56999;SDS011;42891;50.006;21.964;2023-06-22T08:28:54;12.53;;;10.10;;
56999;SDS011;42891;50.006;21.964;2023-06-22T08:32:54;12.10;;;10.10;;
56999;SDS011;42891;50.006;21.964;2023-06-22T08:36:55;12.15;;;9.75;;
56999;SDS011;42891;50.006;21.964;2023-06-22T08:40:55;10.65;;;8.98;;
56999;SDS011;42891;50.006;21.964;2023-06-22T08:44:56;12.15;;;9.80;;
56999;SDS011;42891;50.006;21.964;2023-06-22T08:48:56;12.07;;;10.52;;
56999;SDS011;42891;50.006;21.964;2023-06-22T08:52:59;11.70;;;9.98;;
56999;SDS011;42891;50.006;21.964;2023-06-22T08:57:00;11.40;;;10.10;;
56999;SDS011;42891;50.006;21.964;2023-06-22T09:01:02;12.38;;;10.45;;
56999;SDS011;42891;50.006;21.964;2023-06-22T09:05:03;11.65;;;10.45;;
56999;SDS011;42891;50.006;21.964;2023-06-22T09:09:03;13.07;;;10.63;;
56999;SDS011;42891;50.006;21.964;2023-06-22T09:13:04;10.98;;;9.88;;
56999;SDS011;42891;50.006;21.964;2023-06-22T09:17:04;13.85;;;10.52;;
56999;SDS011;42891;50.006;21.964;2023-06-22T09:21:05;12.35;;;10.82;;
56999;SDS011;42891;50.006;21.964;2023-06-22T09:25:05;12.50;;;10.15;;
56999;SDS011;42891;50.006;21.964;2023-06-22T09:29:06;10.77;;;9.57;;
56999;SDS011;42891;50.006;21.964;2023-06-22T09:33:06;15.50;;;11.13;;
56999;SDS011;42891;50.006;21.964;2023-06-22T09:37:07;11.25;;;9.73;;
56999;SDS011;42891;50.006;21.964;2023-06-22T09:41:07;12.60;;;9.80;;
56999;SDS011;42891;50.006;21.964;2023-06-22T09:45:07;11.00;;;9.77;;
56999;SDS011;42891;50.006;21.964;2023-06-22T09:49:08;13.52;;;11.43;;
56999;SDS011;42891;50.006;21.964;2023-06-22T09:53:08;13.27;;;10.87;;
56999;SDS011;42891;50.006;21.964;2023-06-22T09:57:08;13.43;;;10.90;;
56999;SDS011;42891;50.006;21.964;2023-06-22T10:01:09;13.50;;;10.63;;
56999;SDS011;42891;50.006;21.964;2023-06-22T10:09:14;14.02;;;10.57;;
56999;SDS011;42891;50.006;21.964;2023-06-22T10:13:15;12.93;;;10.60;;
56999;SDS011;42891;50.006;21.964;2023-06-22T10:17:15;11.00;;;9.82;;
56999;SDS011;42891;50.006;21.964;2023-06-22T10:21:16;12.17;;;10.77;;
56999;SDS011;42891;50.006;21.964;2023-06-22T10:25:16;13.07;;;10.25;;
56999;SDS011;42891;50.006;21.964;2023-06-22T10:29:16;14.40;;;10.43;;
56999;SDS011;42891;50.006;21.964;2023-06-22T10:33:17;14.57;;;11.33;;
56999;SDS011;42891;50.006;21.964;2023-06-22T10:37:17;13.20;;;11.20;;
56999;SDS011;42891;50.006;21.964;2023-06-22T10:41:18;13.05;;;11.13;;
56999;SDS011;42891;50.006;21.964;2023-06-22T10:45:18;15.27;;;12.05;;
56999;SDS011;42891;50.006;21.964;2023-06-22T10:49:18;12.27;;;9.67;;
56999;SDS011;42891;50.006;21.964;2023-06-22T10:53:19;11.17;;;10.07;;
56999;SDS011;42891;50.006;21.964;2023-06-22T10:57:19;12.63;;;9.80;;
56999;SDS011;42891;50.006;21.964;2023-06-22T11:01:21;11.55;;;10.35;;
56999;SDS011;42891;50.006;21.964;2023-06-22T11:05:22;12.55;;;11.05;;
56999;SDS011;42891;50.006;21.964;2023-06-22T11:09:22;12.87;;;10.70;;
56999;SDS011;42891;50.006;21.964;2023-06-22T11:13:22;14.35;;;10.77;;
56999;SDS011;42891;50.006;21.964;2023-06-22T11:17:23;11.48;;;9.55;;
56999;SDS011;42891;50.006;21.964;2023-06-22T11:21:23;13.43;;;11.13;;
56999;SDS011;42891;50.006;21.964;2023-06-22T11:25:23;13.20;;;10.10;;
56999;SDS011;42891;50.006;21.964;2023-06-22T11:29:24;11.63;;;10.40;;
56999;SDS011;42891;50.006;21.964;2023-06-22T11:33:24;11.60;;;9.90;;
56999;SDS011;42891;50.006;21.964;2023-06-22T11:37:24;12.98;;;9.52;;
56999;SDS011;42891;50.006;21.964;2023-06-22T11:41:25;11.40;;;9.70;;
56999;SDS011;42891;50.006;21.964;2023-06-22T11:45:25;11.97;;;9.83;;
56999;SDS011;42891;50.006;21.964;2023-06-22T11:49:25;12.13;;;9.85;;
56999;SDS011;42891;50.006;21.964;2023-06-22T11:53:26;11.30;;;8.95;;
56999;SDS011;42891;50.006;21.964;2023-06-22T11:57:27;10.63;;;9.52;;
56999;SDS011;42891;50.006;21.964;2023-06-22T12:01:27;10.25;;;8.90;;
56999;SDS011;42891;50.006;21.964;2023-06-22T12:05:27;10.65;;;9.48;;
56999;SDS011;42891;50.006;21.964;2023-06-22T12:09:28;10.65;;;9.35;;
56999;SDS011;42891;50.006;21.964;2023-06-22T12:13:28;10.88;;;9.27;;
56999;SDS011;42891;50.006;21.964;2023-06-22T12:17:29;10.43;;;9.33;;
56999;SDS011;42891;50.006;21.964;2023-06-22T12:21:32;13.52;;;9.35;;
56999;SDS011;42891;50.006;21.964;2023-06-22T12:25:32;10.43;;;9.43;;
56999;SDS011;42891;50.006;21.964;2023-06-22T12:29:33;11.13;;;9.88;;
56999;SDS011;42891;50.006;21.964;2023-06-22T12:33:33;13.48;;;10.10;;
56999;SDS011;42891;50.006;21.964;2023-06-22T12:37:33;12.15;;;10.07;;
56999;SDS011;42891;50.006;21.964;2023-06-22T12:41:34;19.42;;;10.93;;
56999;SDS011;42891;50.006;21.964;2023-06-22T12:45:34;15.13;;;10.43;;
56999;SDS011;42891;50.006;21.964;2023-06-22T12:49:35;19.20;;;11.03;;
56999;SDS011;42891;50.006;21.964;2023-06-22T12:53:35;18.27;;;11.70;;
56999;SDS011;42891;50.006;21.964;2023-06-22T12:57:36;13.38;;;11.10;;
56999;SDS011;42891;50.006;21.964;2023-06-22T13:01:37;13.70;;;9.68;;
56999;SDS011;42891;50.006;21.964;2023-06-22T13:05:37;16.23;;;8.73;;
56999;SDS011;42891;50.006;21.964;2023-06-22T13:09:38;10.63;;;6.75;;
56999;SDS011;42891;50.006;21.964;2023-06-22T13:13:38;8.63;;;7.70;;
56999;SDS011;42891;50.006;21.964;2023-06-22T13:17:39;11.02;;;8.23;;
56999;SDS011;42891;50.006;21.964;2023-06-22T13:21:39;10.45;;;8.45;;
56999;SDS011;42891;50.006;21.964;2023-06-22T13:25:40;11.95;;;9.50;;
56999;SDS011;42891;50.006;21.964;2023-06-22T13:29:40;10.93;;;9.77;;
56999;SDS011;42891;50.006;21.964;2023-06-22T13:33:41;11.23;;;9.23;;
56999;SDS011;42891;50.006;21.964;2023-06-22T13:37:41;10.80;;;9.70;;
56999;SDS011;42891;50.006;21.964;2023-06-22T13:41:41;16.05;;;8.95;;
56999;SDS011;42891;50.006;21.964;2023-06-22T13:45:43;9.52;;;7.25;;
56999;SDS011;42891;50.006;21.964;2023-06-22T13:49:44;8.23;;;6.35;;
56999;SDS011;42891;50.006;21.964;2023-06-22T13:53:44;8.55;;;6.75;;
56999;SDS011;42891;50.006;21.964;2023-06-22T13:57:44;7.90;;;6.60;;
56999;SDS011;42891;50.006;21.964;2023-06-22T14:01:45;9.82;;;6.85;;
56999;SDS011;42891;50.006;21.964;2023-06-22T14:05:45;9.50;;;6.93;;
56999;SDS011;42891;50.006;21.964;2023-06-22T14:09:46;7.82;;;6.97;;
56999;SDS011;42891;50.006;21.964;2023-06-22T14:13:47;8.90;;;7.60;;
56999;SDS011;42891;50.006;21.964;2023-06-22T14:17:47;9.55;;;7.35;;
56999;SDS011;42891;50.006;21.964;2023-06-22T14:21:47;8.25;;;6.90;;
56999;SDS011;42891;50.006;21.964;2023-06-22T14:25:48;9.57;;;7.20;;
56999;SDS011;42891;50.006;21.964;2023-06-22T14:29:48;12.57;;;7.60;;
56999;SDS011;42891;50.006;21.964;2023-06-22T14:33:49;8.88;;;7.40;;
56999;SDS011;42891;50.006;21.964;2023-06-22T14:37:49;9.43;;;8.45;;
56999;SDS011;42891;50.006;21.964;2023-06-22T14:41:50;11.43;;;8.20;;
56999;SDS011;42891;50.006;21.964;2023-06-22T14:45:50;9.10;;;8.20;;
56999;SDS011;42891;50.006;21.964;2023-06-22T14:49:51;9.93;;;8.93;;
56999;SDS011;42891;50.006;21.964;2023-06-22T14:53:51;10.87;;;9.30;;
56999;SDS011;42891;50.006;21.964;2023-06-22T14:57:51;10.17;;;9.17;;
56999;SDS011;42891;50.006;21.964;2023-06-22T15:01:52;10.52;;;8.90;;
56999;SDS011;42891;50.006;21.964;2023-06-22T15:05:52;11.63;;;9.23;;
56999;SDS011;42891;50.006;21.964;2023-06-22T15:09:53;10.43;;;9.32;;
56999;SDS011;42891;50.006;21.964;2023-06-22T15:13:54;13.33;;;8.93;;
56999;SDS011;42891;50.006;21.964;2023-06-22T15:17:58;9.93;;;8.93;;
56999;SDS011;42891;50.006;21.964;2023-06-22T15:21:58;11.00;;;9.77;;
56999;SDS011;42891;50.006;21.964;2023-06-22T15:25:59;10.93;;;9.03;;
56999;SDS011;42891;50.006;21.964;2023-06-22T15:30:02;10.48;;;9.38;;
56999;SDS011;42891;50.006;21.964;2023-06-22T15:34:04;10.68;;;9.20;;
56999;SDS011;42891;50.006;21.964;2023-06-22T15:38:04;10.32;;;9.32;;
56999;SDS011;42891;50.006;21.964;2023-06-22T15:42:04;10.57;;;9.13;;
56999;SDS011;42891;50.006;21.964;2023-06-22T15:46:05;12.32;;;9.50;;
56999;SDS011;42891;50.006;21.964;2023-06-22T15:50:05;11.67;;;9.40;;
56999;SDS011;42891;50.006;21.964;2023-06-22T15:54:06;11.05;;;9.57;;
56999;SDS011;42891;50.006;21.964;2023-06-22T15:58:07;11.00;;;9.70;;
56999;SDS011;42891;50.006;21.964;2023-06-22T16:02:09;10.07;;;9.00;;
56999;SDS011;42891;50.006;21.964;2023-06-22T16:06:09;9.98;;;9.07;;
56999;SDS011;42891;50.006;21.964;2023-06-22T16:10:10;11.50;;;10.37;;
56999;SDS011;42891;50.006;21.964;2023-06-22T16:14:10;12.10;;;10.15;;
56999;SDS011;42891;50.006;21.964;2023-06-22T16:18:10;10.70;;;9.60;;
56999;SDS011;42891;50.006;21.964;2023-06-22T16:22:11;12.32;;;9.90;;
56999;SDS011;42891;50.006;21.964;2023-06-22T16:26:12;13.93;;;9.68;;
56999;SDS011;42891;50.006;21.964;2023-06-22T16:30:12;10.82;;;9.73;;
56999;SDS011;42891;50.006;21.964;2023-06-22T16:34:12;11.52;;;10.30;;
56999;SDS011;42891;50.006;21.964;2023-06-22T16:38:13;11.90;;;10.57;;
56999;SDS011;42891;50.006;21.964;2023-06-22T16:42:13;10.45;;;9.40;;
56999;SDS011;42891;50.006;21.964;2023-06-22T16:46:14;15.98;;;10.23;;
56999;SDS011;42891;50.006;21.964;2023-06-22T16:50:15;11.02;;;9.93;;
56999;SDS011;42891;50.006;21.964;2023-06-22T16:54:16;12.00;;;10.75;;
56999;SDS011;42891;50.006;21.964;2023-06-22T16:58:17;12.52;;;10.05;;
56999;SDS011;42891;50.006;21.964;2023-06-22T17:06:23;13.02;;;11.07;;
56999;SDS011;42891;50.006;21.964;2023-06-22T17:10:23;11.85;;;10.65;;
56999;SDS011;42891;50.006;21.964;2023-06-22T17:14:24;13.30;;;11.15;;
56999;SDS011;42891;50.006;21.964;2023-06-22T17:18:24;13.15;;;10.68;;
56999;SDS011;42891;50.006;21.964;2023-06-22T17:22:25;12.32;;;10.73;;
56999;SDS011;42891;50.006;21.964;2023-06-22T17:26:27;12.30;;;11.10;;
56999;SDS011;42891;50.006;21.964;2023-06-22T17:30:28;12.30;;;11.00;;
56999;SDS011;42891;50.006;21.964;2023-06-22T17:34:29;15.07;;;12.20;;
56999;SDS011;42891;50.006;21.964;2023-06-22T17:38:29;13.77;;;12.23;;
56999;SDS011;42891;50.006;21.964;2023-06-22T17:42:30;13.50;;;11.83;;
56999;SDS011;42891;50.006;21.964;2023-06-22T17:46:34;12.60;;;11.13;;
56999;SDS011;42891;50.006;21.964;2023-06-22T17:50:39;17.63;;;11.50;;
56999;SDS011;42891;50.006;21.964;2023-06-22T17:54:40;12.63;;;11.05;;
56999;SDS011;42891;50.006;21.964;2023-06-22T17:58:49;15.25;;;11.40;;
56999;SDS011;42891;50.006;21.964;2023-06-22T18:02:50;14.45;;;10.75;;
56999;SDS011;42891;50.006;21.964;2023-06-22T18:06:51;14.88;;;11.27;;
56999;SDS011;42891;50.006;21.964;2023-06-22T18:10:53;13.45;;;11.73;;
56999;SDS011;42891;50.006;21.964;2023-06-22T18:14:57;14.98;;;11.70;;
56999;SDS011;42891;50.006;21.964;2023-06-22T18:18:59;16.90;;;12.35;;
56999;SDS011;42891;50.006;21.964;2023-06-22T18:23:00;14.90;;;11.80;;
56999;SDS011;42891;50.006;21.964;2023-06-22T18:27:01;13.60;;;11.95;;
56999;SDS011;42891;50.006;21.964;2023-06-22T18:31:04;13.07;;;11.65;;
56999;SDS011;42891;50.006;21.964;2023-06-22T18:35:06;15.38;;;12.90;;
56999;SDS011;42891;50.006;21.964;2023-06-22T18:39:07;18.42;;;13.38;;
56999;SDS011;42891;50.006;21.964;2023-06-22T18:43:09;20.98;;;15.65;;
56999;SDS011;42891;50.006;21.964;2023-06-22T18:47:10;22.83;;;14.98;;
56999;SDS011;42891;50.006;21.964;2023-06-22T18:51:11;20.30;;;16.02;;
56999;SDS011;42891;50.006;21.964;2023-06-22T18:55:11;19.05;;;16.10;;
56999;SDS011;42891;50.006;21.964;2023-06-22T18:59:13;18.77;;;14.98;;
56999;SDS011;42891;50.006;21.964;2023-06-22T19:03:29;25.83;;;17.47;;
56999;SDS011;42891;50.006;21.964;2023-06-22T19:20:31;20.17;;;15.05;;
56999;SDS011;42891;50.006;21.964;2023-06-22T19:24:48;22.55;;;15.70;;
56999;SDS011;42891;50.006;21.964;2023-06-22T19:28:53;19.35;;;16.30;;
56999;SDS011;42891;50.006;21.964;2023-06-22T19:32:56;22.83;;;16.38;;
56999;SDS011;42891;50.006;21.964;2023-06-22T19:36:59;19.85;;;14.90;;
56999;SDS011;42891;50.006;21.964;2023-06-22T19:41:00;19.58;;;15.20;;
56999;SDS011;42891;50.006;21.964;2023-06-22T19:45:01;20.35;;;15.90;;
56999;SDS011;42891;50.006;21.964;2023-06-22T19:49:03;20.35;;;15.57;;
56999;SDS011;42891;50.006;21.964;2023-06-22T19:53:03;20.83;;;16.70;;
56999;SDS011;42891;50.006;21.964;2023-06-22T19:57:08;21.45;;;16.95;;
56999;SDS011;42891;50.006;21.964;2023-06-22T20:01:09;18.40;;;16.33;;
56999;SDS011;42891;50.006;21.964;2023-06-22T20:05:10;25.23;;;18.25;;
56999;SDS011;42891;50.006;21.964;2023-06-22T20:09:12;21.20;;;17.17;;
56999;SDS011;42891;50.006;21.964;2023-06-22T20:13:18;27.92;;;18.80;;
56999;SDS011;42891;50.006;21.964;2023-06-22T20:17:22;24.30;;;18.45;;
56999;SDS011;42891;50.006;21.964;2023-06-22T20:21:23;24.35;;;19.20;;
56999;SDS011;42891;50.006;21.964;2023-06-22T20:25:24;22.77;;;18.52;;
56999;SDS011;42891;50.006;21.964;2023-06-22T20:29:25;20.75;;;17.17;;
56999;SDS011;42891;50.006;21.964;2023-06-22T20:33:33;24.70;;;19.75;;
56999;SDS011;42891;50.006;21.964;2023-06-22T20:37:34;27.75;;;20.77;;
56999;SDS011;42891;50.006;21.964;2023-06-22T20:41:34;28.85;;;18.85;;
56999;SDS011;42891;50.006;21.964;2023-06-22T20:45:35;26.77;;;19.60;;
56999;SDS011;42891;50.006;21.964;2023-06-22T20:49:35;30.70;;;21.13;;
56999;SDS011;42891;50.006;21.964;2023-06-22T20:53:37;25.48;;;19.75;;
56999;SDS011;42891;50.006;21.964;2023-06-22T20:57:37;24.27;;;19.33;;
56999;SDS011;42891;50.006;21.964;2023-06-22T21:01:38;24.73;;;18.77;;
56999;SDS011;42891;50.006;21.964;2023-06-22T21:05:38;22.52;;;19.00;;
56999;SDS011;42891;50.006;21.964;2023-06-22T21:09:40;22.80;;;18.77;;
56999;SDS011;42891;50.006;21.964;2023-06-22T21:13:40;34.77;;;21.70;;
56999;SDS011;42891;50.006;21.964;2023-06-22T21:17:41;30.17;;;21.63;;
56999;SDS011;42891;50.006;21.964;2023-06-22T21:21:41;30.50;;;22.00;;
56999;SDS011;42891;50.006;21.964;2023-06-22T21:25:42;30.55;;;21.23;;
56999;SDS011;42891;50.006;21.964;2023-06-22T21:29:43;32.90;;;21.25;;
56999;SDS011;42891;50.006;21.964;2023-06-22T21:33:43;24.87;;;20.17;;
56999;SDS011;42891;50.006;21.964;2023-06-22T21:37:43;24.38;;;19.33;;
56999;SDS011;42891;50.006;21.964;2023-06-22T21:41:45;26.08;;;19.40;;
56999;SDS011;42891;50.006;21.964;2023-06-22T21:45:46;24.30;;;19.00;;
56999;SDS011;42891;50.006;21.964;2023-06-22T21:49:46;28.73;;;20.33;;
56999;SDS011;42891;50.006;21.964;2023-06-22T21:53:46;29.45;;;20.92;;
56999;SDS011;42891;50.006;21.964;2023-06-22T21:57:47;28.98;;;21.48;;
56999;SDS011;42891;50.006;21.964;2023-06-22T22:01:47;27.80;;;21.37;;
56999;SDS011;42891;50.006;21.964;2023-06-22T22:05:47;27.03;;;20.50;;
56999;SDS011;42891;50.006;21.964;2023-06-22T22:09:48;29.05;;;22.40;;
56999;SDS011;42891;50.006;21.964;2023-06-22T22:13:49;26.53;;;21.80;;
56999;SDS011;42891;50.006;21.964;2023-06-22T22:17:49;23.90;;;19.63;;
56999;SDS011;42891;50.006;21.964;2023-06-22T22:21:50;26.80;;;22.13;;
56999;SDS011;42891;50.006;21.964;2023-06-22T22:25:50;26.25;;;20.08;;
56999;SDS011;42891;50.006;21.964;2023-06-22T22:29:51;26.48;;;19.30;;
56999;SDS011;42891;50.006;21.964;2023-06-22T22:33:52;23.85;;;20.48;;
56999;SDS011;42891;50.006;21.964;2023-06-22T22:37:52;28.17;;;19.45;;
56999;SDS011;42891;50.006;21.964;2023-06-22T22:41:53;24.30;;;19.67;;
56999;SDS011;42891;50.006;21.964;2023-06-22T22:45:53;26.57;;;18.87;;
56999;SDS011;42891;50.006;21.964;2023-06-22T22:49:53;25.52;;;20.13;;
56999;SDS011;42891;50.006;21.964;2023-06-22T22:53:54;31.08;;;21.95;;
56999;SDS011;42891;50.006;21.964;2023-06-22T22:57:54;31.50;;;22.63;;
56999;SDS011;42891;50.006;21.964;2023-06-22T23:01:54;33.42;;;25.00;;
56999;SDS011;42891;50.006;21.964;2023-06-22T23:05:55;32.33;;;26.13;;
56999;SDS011;42891;50.006;21.964;2023-06-22T23:09:56;33.85;;;26.35;;
56999;SDS011;42891;50.006;21.964;2023-06-22T23:13:57;36.55;;;26.40;;
56999;SDS011;42891;50.006;21.964;2023-06-22T23:17:57;29.47;;;22.60;;
56999;SDS011;42891;50.006;21.964;2023-06-22T23:21:57;36.63;;;23.03;;
56999;SDS011;42891;50.006;21.964;2023-06-22T23:25:58;33.03;;;24.73;;
56999;SDS011;42891;50.006;21.964;2023-06-22T23:29:58;29.73;;;23.23;;
56999;SDS011;42891;50.006;21.964;2023-06-22T23:33:59;40.55;;;28.27;;
56999;SDS011;42891;50.006;21.964;2023-06-22T23:38:03;41.30;;;29.67;;
56999;SDS011;42891;50.006;21.964;2023-06-22T23:42:03;38.33;;;27.13;;
56999;SDS011;42891;50.006;21.964;2023-06-22T23:46:05;29.98;;;22.45;;